McAlisterville, Pennsylvania
Current Conditions -  °F | °C
As of 2:53 PM on Sunday 23 Nov 2014 (Local Time) from KSEG Reporting Station
Clear Clear  
Wind Chill: 14°   Ceiling: Unl
Heat Index: 14°   Visibility: 10mi
Dew Point: -4°   Wind: 3mph
Humidity: 28%   Direction: 230°SW
Pressure: 30.06"   Gusts: NA
Location:  40.64°N, 77.27°W
Report Text: KSEG 231953Z AUTO 23003KT 10SM CLR 14/M04 A3006 RMK AO2 SLP179 T01441039 $
Loading
Personal Weather Stations






























Interactive Weather Map New forecast layout! Learn more

10-Day Weather Forecast

Advertisements
Track Severe Weather on mobile